Time;durP1;ratioP1;P1;durP2;ratioP2;P2;SDS_P1;SDS_P2;PMS_P1;PMS_P2;Temp;Humidity;BMP_temperature;BMP_pressure;BME280_temperature;BME280_humidity;BME280_pressure;Samples;Min_cycle;Max_cycle;Signal;HPM_P1;HPM_P2
2024/04/01 00:00:30;;;;;;;2.75;0.80;;;13.00;99.90;;;;;;4161781;28;20044;-67
2024/04/01 00:02:30;;;;;;;1.15;0.57;;;13.00;99.90;;;;;;4163769;28;20417;-68
2024/04/01 00:04:31;;;;;;;1.65;0.70;;;13.00;99.90;;;;;;4163730;28;20048;-68
2024/04/01 00:06:31;;;;;;;2.85;1.00;;;13.00;99.90;;;;;;4162738;28;20050;-68
2024/04/01 00:08:32;;;;;;;2.17;0.90;;;13.00;99.90;;;;;;4163758;28;20390;-68
2024/04/01 00:10:33;;;;;;;1.35;0.90;;;13.00;99.90;;;;;;4163203;28;20042;-68
2024/04/01 00:12:33;;;;;;;3.03;1.10;;;12.90;99.90;;;;;;4161867;28;20030;-68
2024/04/01 00:14:34;;;;;;;5.05;0.90;;;13.00;99.90;;;;;;4163254;28;20417;-68
2024/04/01 00:16:34;;;;;;;2.63;0.75;;;13.00;99.90;;;;;;4156495;28;20060;-68
2024/04/01 00:18:35;;;;;;;1.45;0.47;;;12.90;99.90;;;;;;4162979;28;20045;-68
2024/04/01 00:20:36;;;;;;;1.13;0.70;;;12.90;99.90;;;;;;4162926;28;20096;-68
2024/04/01 00:22:37;;;;;;;0.82;0.50;;;12.90;99.90;;;;;;4153494;28;20033;-68
2024/04/01 00:24:37;;;;;;;0.90;0.50;;;12.90;99.90;;;;;;4163216;28;20102;-68
2024/04/01 00:26:38;;;;;;;1.00;0.60;;;12.90;99.90;;;;;;4152653;28;20147;-68
2024/04/01 00:28:39;;;;;;;1.83;0.60;;;12.90;99.90;;;;;;4163409;28;20026;-68
2024/04/01 00:30:39;;;;;;;1.40;0.90;;;12.90;99.90;;;;;;4162876;28;20042;-68
2024/04/01 00:32:40;;;;;;;2.13;0.88;;;12.90;99.90;;;;;;4159048;28;20040;-68
2024/04/01 00:34:41;;;;;;;0.95;0.50;;;12.90;99.90;;;;;;4163705;28;20483;-67
2024/04/01 00:36:42;;;;;;;1.85;1.08;;;12.90;99.90;;;;;;4161337;28;20104;-67
2024/04/01 00:38:42;;;;;;;1.80;0.80;;;12.90;99.90;;;;;;4161873;28;20087;-67
2024/04/01 00:40:43;;;;;;;1.73;0.80;;;12.80;99.90;;;;;;4162488;28;20029;-67
2024/04/01 00:42:45;;;;;;;2.35;0.70;;;12.80;99.90;;;;;;4160317;28;20034;-67
2024/04/01 00:44:46;;;;;;;2.15;0.88;;;12.80;99.90;;;;;;4161715;28;20536;-67
2024/04/01 00:46:47;;;;;;;3.42;0.80;;;12.80;99.90;;;;;;4162617;28;20033;-67
2024/04/01 00:48:51;;;;;;;1.73;0.80;;;12.80;99.90;;;;;;4163177;28;20414;-67
2024/04/01 00:50:52;;;;;;;2.33;1.17;;;12.70;99.90;;;;;;4162421;28;20494;-68
2024/04/01 00:52:54;;;;;;;2.22;0.90;;;12.70;99.90;;;;;;4162915;28;20033;-67
2024/04/01 00:54:57;;;;;;;1.73;0.90;;;12.70;99.90;;;;;;4160376;28;20091;-67
2024/04/01 00:56:57;;;;;;;;;;;12.70;99.90;;;;;;4160567;28;20040;-67
2024/04/01 00:59:00;;;;;;;2.30;0.93;;;12.70;99.90;;;;;;4162897;28;19909;-67
2024/04/01 01:01:01;;;;;;;;;;;12.70;99.90;;;;;;4159736;28;20426;-67
2024/04/01 01:03:03;;;;;;;2.45;0.70;;;12.70;99.90;;;;;;4162771;28;19912;-67
2024/04/01 01:05:04;;;;;;;3.20;0.65;;;12.60;99.90;;;;;;4162300;28;20116;-68
2024/04/01 01:07:05;;;;;;;1.92;0.70;;;12.60;99.90;;;;;;4160720;28;20060;-67
2024/04/01 01:09:06;;;;;;;1.33;0.80;;;12.60;99.90;;;;;;4162701;28;20029;-67
2024/04/01 01:11:07;;;;;;;1.10;0.60;;;12.50;99.90;;;;;;4160534;28;20072;-67
2024/04/01 01:13:08;;;;;;;1.17;0.80;;;12.50;99.90;;;;;;4162663;28;20402;-68
2024/04/01 01:15:11;;;;;;;1.80;0.70;;;12.50;99.90;;;;;;4160590;28;20045;-68
2024/04/01 01:17:12;;;;;;;2.15;0.70;;;12.50;99.90;;;;;;4162656;28;20036;-67
2024/04/01 01:19:15;;;;;;;1.30;0.70;;;12.40;99.90;;;;;;4162844;28;20029;-67
2024/04/01 01:21:16;;;;;;;1.95;0.90;;;12.40;99.90;;;;;;4162053;28;20033;-67
2024/04/01 01:23:17;;;;;;;2.08;0.90;;;12.40;99.90;;;;;;4162730;28;20395;-67
2024/04/01 01:25:17;;;;;;;1.55;0.85;;;12.30;99.90;;;;;;4160382;28;20029;-67
2024/04/01 01:27:18;;;;;;;1.60;0.88;;;12.40;99.90;;;;;;4162338;28;20036;-67
2024/04/01 01:29:18;;;;;;;1.25;0.70;;;12.40;99.90;;;;;;4162295;28;20088;-67
2024/04/01 01:31:20;;;;;;;2.63;0.65;;;12.30;99.90;;;;;;4161286;28;20485;-68
2024/04/01 01:33:21;;;;;;;1.20;0.90;;;12.30;99.90;;;;;;4162219;28;20120;-67
2024/04/01 01:35:23;;;;;;;1.27;0.73;;;12.30;99.90;;;;;;4161662;28;20033;-67
2024/04/01 01:37:24;;;;;;;3.88;1.00;;;12.30;99.90;;;;;;4159964;28;20445;-67
2024/04/01 01:39:24;;;;;;;2.38;0.80;;;12.30;99.90;;;;;;4160188;28;20060;-67
2024/04/01 01:41:25;;;;;;;1.70;0.82;;;12.30;99.90;;;;;;4160764;28;20033;-67
2024/04/01 01:43:26;;;;;;;2.25;0.70;;;12.40;99.90;;;;;;4160467;28;20029;-67
2024/04/01 01:45:26;;;;;;;1.58;0.80;;;12.30;99.90;;;;;;4162026;28;20041;-67
2024/04/01 01:47:27;;;;;;;1.27;0.68;;;12.30;99.90;;;;;;4162090;28;20029;-67
2024/04/01 01:49:27;;;;;;;2.05;0.73;;;12.30;99.90;;;;;;4161642;28;20096;-67
2024/04/01 01:51:30;;;;;;;1.10;0.60;;;12.30;99.90;;;;;;4161500;28;20025;-67
2024/04/01 01:53:30;;;;;;;0.82;0.68;;;12.30;99.90;;;;;;4161817;28;20037;-67
2024/04/01 01:55:31;;;;;;;2.80;0.80;;;12.30;99.90;;;;;;4159779;28;20033;-67
2024/04/01 01:57:32;;;;;;;1.15;0.50;;;12.30;99.90;;;;;;4161530;28;20021;-67
2024/04/01 01:59:33;;;;;;;1.15;0.52;;;12.30;99.90;;;;;;4161692;28;20112;-67
2024/04/01 02:01:34;;;;;;;1.77;0.63;;;12.30;99.90;;;;;;4161102;28;20049;-67
2024/04/01 02:03:35;;;;;;;4.90;0.98;;;12.30;99.90;;;;;;4162197;28;20474;-67
2024/04/01 02:05:37;;;;;;;2.17;0.70;;;12.30;99.90;;;;;;4160841;28;20048;-68
2024/04/01 02:07:37;;;;;;;3.13;0.85;;;12.30;99.90;;;;;;4160583;28;20025;-67
2024/04/01 02:09:38;;;;;;;0.75;0.40;;;12.40;99.90;;;;;;4161860;28;20033;-66
2024/04/01 02:11:39;;;;;;;1.40;0.63;;;12.30;99.90;;;;;;4160424;28;20037;-67
2024/04/01 02:13:40;;;;;;;0.80;0.60;;;12.40;99.90;;;;;;4160923;28;20037;-66
2024/04/01 02:15:41;;;;;;;2.50;0.77;;;12.40;99.90;;;;;;4161351;28;20025;-67
2024/04/01 02:17:41;;;;;;;1.55;0.80;;;12.40;99.90;;;;;;4160208;28;20441;-67
2024/04/01 02:19:45;;;;;;;2.03;0.60;;;12.40;99.90;;;;;;4160493;28;20026;-67
2024/04/01 02:21:48;;;;;;;1.50;0.60;;;12.50;99.90;;;;;;4161358;28;20423;-67
2024/04/01 02:23:49;;;;;;;0.63;0.47;;;12.50;99.90;;;;;;4160123;28;20033;-67
2024/04/01 02:25:49;;;;;;;0.93;0.50;;;12.50;99.90;;;;;;4158896;28;20037;-66
2024/04/01 02:27:50;;;;;;;1.08;0.57;;;12.50;99.90;;;;;;4161731;28;20055;-67
2024/04/01 02:29:50;;;;;;;0.68;0.47;;;12.50;99.90;;;;;;4161517;28;20152;-67
2024/04/01 02:31:51;;;;;;;1.23;0.50;;;12.50;99.90;;;;;;4161229;28;20018;-67
2024/04/01 02:33:51;;;;;;;1.33;0.60;;;12.50;99.90;;;;;;4161828;28;20480;-67
2024/04/01 02:35:52;;;;;;;0.63;0.45;;;12.60;99.90;;;;;;4161269;28;20026;-67
2024/04/01 02:37:53;;;;;;;2.47;0.50;;;12.60;99.90;;;;;;4161806;28;20528;-67
2024/04/01 02:39:54;;;;;;;0.80;0.40;;;12.60;99.90;;;;;;4161834;28;20114;-67
2024/04/01 02:41:54;;;;;;;1.92;0.70;;;12.60;99.90;;;;;;4161310;28;22628;-66
2024/04/01 02:43:55;;;;;;;0.60;0.50;;;12.60;99.90;;;;;;4161944;28;20046;-67
2024/04/01 02:45:55;;;;;;;2.42;0.50;;;12.60;99.90;;;;;;4161170;28;20410;-67
2024/04/01 02:47:56;;;;;;;0.68;0.47;;;12.60;99.90;;;;;;4161826;28;20029;-67
2024/04/01 02:49:56;;;;;;;2.13;0.60;;;12.60;99.90;;;;;;4161342;28;20112;-67
2024/04/01 02:51:57;;;;;;;1.33;0.52;;;12.50;99.90;;;;;;4156808;28;20083;-67
2024/04/01 02:53:58;;;;;;;1.83;0.52;;;12.50;99.90;;;;;;4161905;28;20482;-67
2024/04/01 02:55:58;;;;;;;2.38;0.73;;;12.50;99.90;;;;;;4159931;28;20034;-71
2024/04/01 02:57:59;;;;;;;0.80;0.60;;;12.50;99.90;;;;;;4160260;28;20088;-71
2024/04/01 02:59:59;;;;;;;0.50;0.50;;;12.50;99.90;;;;;;4160224;28;20033;-71
2024/04/01 03:02:01;;;;;;;0.63;0.50;;;12.50;99.90;;;;;;4161124;28;20029;-71
2024/04/01 03:04:03;;;;;;;0.40;0.32;;;12.50;99.90;;;;;;4161794;28;20059;-71
2024/04/01 03:06:04;;;;;;;0.60;0.40;;;12.50;99.90;;;;;;4159464;28;20049;-71
2024/04/01 03:08:09;;;;;;;1.42;0.50;;;12.60;99.90;;;;;;4161719;28;20037;-71
2024/04/01 03:10:11;;;;;;;1.25;0.47;;;12.60;99.90;;;;;;4160780;28;20079;-72
2024/04/01 03:12:11;;;;;;;2.10;0.85;;;12.60;99.90;;;;;;4160106;28;20462;-72
2024/04/01 03:14:12;;;;;;;0.55;0.50;;;12.60;99.90;;;;;;4161110;28;20093;-71
2024/04/01 03:16:12;;;;;;;0.70;0.50;;;12.60;99.90;;;;;;4159226;28;20064;-71
2024/04/01 03:18:13;;;;;;;0.60;0.35;;;12.70;99.90;;;;;;4163132;28;20466;-71
2024/04/01 03:20:14;;;;;;;2.15;0.75;;;12.70;99.90;;;;;;4164005;28;20414;-72
2024/04/01 03:22:14;;;;;;;1.85;0.60;;;12.70;99.90;;;;;;4164508;28;20087;-71
2024/04/01 03:24:15;;;;;;;0.60;0.40;;;12.70;99.90;;;;;;4164508;28;20032;-71
2024/04/01 03:26:15;;;;;;;1.33;0.65;;;12.70;99.90;;;;;;4146019;28;20104;-71
2024/04/01 03:28:17;;;;;;;1.00;0.70;;;12.70;99.90;;;;;;4164448;28;20026;-71
2024/04/01 03:30:17;;;;;;;0.85;0.77;;;12.70;99.90;;;;;;4163718;28;20026;-71
2024/04/01 03:32:18;;;;;;;1.15;0.38;;;12.70;99.90;;;;;;4164472;28;20045;-71
2024/04/01 03:34:19;;;;;;;1.25;0.80;;;12.70;99.90;;;;;;4164351;28;20363;-71
2024/04/01 03:36:20;;;;;;;0.73;0.43;;;12.70;99.90;;;;;;4160088;28;20037;-71
2024/04/01 03:38:20;;;;;;;1.17;0.70;;;12.70;99.90;;;;;;4162248;28;20124;-68
2024/04/01 03:40:21;;;;;;;2.90;0.75;;;12.70;99.90;;;;;;4163617;28;20037;-70
2024/04/01 03:42:22;;;;;;;0.98;0.60;;;12.60;99.90;;;;;;4159972;28;20033;-70
2024/04/01 03:44:24;;;;;;;0.57;0.50;;;12.70;99.90;;;;;;4163359;28;20080;-71
2024/04/01 03:46:24;;;;;;;0.85;0.40;;;12.70;99.90;;;;;;4163265;28;20046;-71
2024/04/01 03:48:25;;;;;;;0.90;0.50;;;12.60;99.90;;;;;;4164000;28;20052;-72
2024/04/01 03:50:26;;;;;;;2.38;0.60;;;12.70;99.90;;;;;;4163517;28;20107;-71
2024/04/01 03:52:27;;;;;;;0.65;0.40;;;12.70;99.90;;;;;;4164222;28;20108;-71
2024/04/01 03:54:28;;;;;;;1.58;0.88;;;12.70;99.90;;;;;;4164066;28;20029;-71
2024/04/01 03:56:29;;;;;;;1.08;0.70;;;12.70;99.90;;;;;;4163327;28;20037;-71
2024/04/01 03:58:29;;;;;;;0.70;0.50;;;12.70;99.90;;;;;;4146062;28;20034;-71
2024/04/01 04:00:30;;;;;;;1.70;0.45;;;12.70;99.90;;;;;;4163130;28;20045;-71
2024/04/01 04:02:30;;;;;;;0.55;0.50;;;12.60;99.90;;;;;;4159750;28;20034;-71
2024/04/01 04:04:31;;;;;;;1.65;0.68;;;12.70;99.90;;;;;;4164182;28;20312;-67
2024/04/01 04:06:32;;;;;;;1.00;0.70;;;12.70;99.90;;;;;;4163073;28;20053;-69
2024/04/01 04:08:33;;;;;;;0.60;0.60;;;12.70;99.90;;;;;;4162193;28;20030;-67
2024/04/01 04:10:34;;;;;;;0.75;0.43;;;12.60;99.90;;;;;;4158593;28;20044;-60
2024/04/01 04:12:34;;;;;;;0.47;0.40;;;12.70;99.90;;;;;;4162613;28;20029;-67
2024/04/01 04:14:35;;;;;;;2.72;0.80;;;12.70;99.90;;;;;;4156992;28;20135;-60
2024/04/01 04:16:36;;;;;;;2.47;0.60;;;12.60;99.90;;;;;;4161411;28;20474;-66
2024/04/01 04:18:36;;;;;;;1.40;0.70;;;12.70;99.90;;;;;;4156522;28;20037;-61
2024/04/01 04:20:37;;;;;;;1.13;0.73;;;12.60;99.90;;;;;;4157735;28;20393;-68
2024/04/01 04:22:38;;;;;;;1.75;0.52;;;12.60;99.90;;;;;;4167721;28;20037;-68
2024/04/01 04:24:38;;;;;;;2.00;0.98;;;12.60;99.90;;;;;;4157515;28;20510;-68
2024/04/01 04:26:40;;;;;;;1.40;0.55;;;12.60;99.90;;;;;;4158242;28;20045;-68
2024/04/01 04:28:40;;;;;;;0.73;0.47;;;12.60;99.90;;;;;;4155117;28;20026;-68
2024/04/01 04:30:41;;;;;;;1.25;0.70;;;12.60;99.90;;;;;;4153172;28;20038;-68
2024/04/01 04:32:43;;;;;;;1.17;0.55;;;12.60;99.90;;;;;;4159885;28;20037;-68
2024/04/01 04:34:44;;;;;;;0.35;0.35;;;12.60;99.90;;;;;;4156451;28;20045;-68
2024/04/01 04:36:44;;;;;;;1.20;0.70;;;12.60;99.90;;;;;;4152898;28;20072;-67
2024/04/01 04:38:47;;;;;;;0.85;0.63;;;12.60;99.90;;;;;;4159695;28;20038;-68
2024/04/01 04:40:49;;;;;;;1.08;0.57;;;12.60;99.90;;;;;;4155023;28;20489;-68
2024/04/01 04:42:51;;;;;;;1.17;0.43;;;12.60;99.90;;;;;;4159159;28;20493;-68
2024/04/01 04:44:51;;;;;;;0.60;0.50;;;12.50;99.90;;;;;;4158413;28;20034;-68
2024/04/01 04:46:52;;;;;;;1.08;0.50;;;12.60;99.90;;;;;;4157584;28;20052;-67
2024/04/01 04:48:53;;;;;;;1.17;0.40;;;12.60;99.90;;;;;;4155407;28;20053;-68
2024/04/01 04:50:54;;;;;;;0.93;0.57;;;12.50;99.90;;;;;;4155642;28;20036;-68
2024/04/01 04:52:55;;;;;;;1.48;0.60;;;12.50;99.90;;;;;;4153683;28;20042;-68
2024/04/01 04:54:56;;;;;;;0.95;0.52;;;12.50;99.90;;;;;;4157476;28;20040;-68
2024/04/01 04:56:57;;;;;;;0.85;0.50;;;12.50;99.90;;;;;;4152430;28;20066;-68
2024/04/01 04:58:57;;;;;;;0.60;0.50;;;12.50;99.90;;;;;;4156769;28;20042;-68
2024/04/01 05:01:05;;;;;;;1.52;0.70;;;12.50;99.90;;;;;;4157117;28;20045;-69
2024/04/01 05:03:07;;;;;;;0.65;0.43;;;12.50;99.90;;;;;;4156432;28;20041;-68
2024/04/01 05:05:08;;;;;;;1.27;0.50;;;12.50;99.90;;;;;;4156337;28;20294;-68
2024/04/01 05:07:09;;;;;;;2.50;0.70;;;12.50;99.90;;;;;;4157461;28;20041;-68
2024/04/01 05:09:10;;;;;;;0.63;0.40;;;12.50;99.90;;;;;;4156776;28;20564;-67
2024/04/01 05:11:11;;;;;;;0.38;0.35;;;12.50;99.90;;;;;;4157038;28;20584;-67
2024/04/01 05:13:12;;;;;;;2.35;0.43;;;12.50;99.90;;;;;;4153031;28;20061;-68
2024/04/01 05:15:13;;;;;;;0.93;0.73;;;12.50;99.90;;;;;;4154713;28;20038;-64
2024/04/01 05:17:13;;;;;;;0.45;0.45;;;12.50;99.90;;;;;;4156759;28;20033;-64
2024/04/01 05:19:14;;;;;;;0.88;0.50;;;12.50;99.90;;;;;;4157069;28;20035;-63
2024/04/01 05:21:17;;;;;;;1.42;0.60;;;12.50;99.90;;;;;;4158570;28;20033;-64
2024/04/01 05:23:17;;;;;;;0.40;0.40;;;12.50;99.90;;;;;;4151495;28;20402;-64
2024/04/01 05:25:19;;;;;;;0.43;0.40;;;12.50;99.90;;;;;;4150351;28;20038;-64
2024/04/01 05:27:21;;;;;;;1.10;0.70;;;12.50;99.90;;;;;;4156132;28;20041;-64
2024/04/01 05:29:22;;;;;;;1.50;0.85;;;12.50;99.90;;;;;;4155757;28;20029;-64
2024/04/01 05:31:22;;;;;;;0.90;0.65;;;12.60;99.90;;;;;;4152969;28;20026;-65
2024/04/01 05:33:26;;;;;;;1.02;0.70;;;12.50;99.90;;;;;;4154619;28;20037;-64
2024/04/01 05:35:32;;;;;;;1.15;0.85;;;12.50;99.90;;;;;;4150549;28;20037;-63
2024/04/01 05:37:34;;;;;;;0.65;0.60;;;12.50;99.90;;;;;;4130140;28;20042;-64
2024/04/01 05:39:34;;;;;;;1.42;0.80;;;12.50;99.90;;;;;;4139102;28;20414;-64
2024/04/01 05:41:35;;;;;;;1.95;0.85;;;12.50;99.90;;;;;;4141585;28;20064;-64
2024/04/01 05:43:36;;;;;;;1.25;0.52;;;12.50;99.90;;;;;;4156764;28;20030;-64
2024/04/01 05:45:37;;;;;;;0.68;0.68;;;12.50;99.90;;;;;;4155684;28;20121;-64
2024/04/01 05:47:38;;;;;;;1.30;0.80;;;12.50;99.90;;;;;;4153519;28;20588;-64
2024/04/01 05:49:39;;;;;;;0.63;0.60;;;12.50;99.90;;;;;;4156567;28;20065;-64
2024/04/01 05:51:40;;;;;;;0.65;0.65;;;12.50;99.90;;;;;;4140638;28;20037;-64
2024/04/01 05:53:41;;;;;;;1.42;0.55;;;12.50;99.90;;;;;;4150718;28;20413;-64
2024/04/01 05:55:41;;;;;;;0.77;0.60;;;12.50;99.90;;;;;;4148728;28;20084;-64
2024/04/01 05:57:42;;;;;;;0.95;0.55;;;12.60;99.90;;;;;;4145206;28;20044;-64
2024/04/01 05:59:45;;;;;;;0.35;0.35;;;12.60;99.90;;;;;;4156737;28;20049;-64
2024/04/01 06:01:46;;;;;;;0.90;0.63;;;12.50;99.90;;;;;;4156568;28;20032;-65
2024/04/01 06:03:47;;;;;;;1.17;0.60;;;12.60;99.90;;;;;;4156115;28;20462;-65
2024/04/01 06:05:48;;;;;;;0.82;0.70;;;12.60;99.90;;;;;;4153051;28;20041;-64
2024/04/01 06:07:48;;;;;;;2.17;0.93;;;12.50;99.90;;;;;;4153012;28;20052;-64
2024/04/01 06:09:49;;;;;;;0.73;0.40;;;12.60;99.90;;;;;;4156530;28;20057;-65
2024/04/01 06:11:50;;;;;;;1.17;0.70;;;12.60;99.90;;;;;;4155584;28;20026;-64
2024/04/01 06:13:51;;;;;;;1.23;0.85;;;12.60;99.90;;;;;;4181716;28;20029;-64
2024/04/01 06:15:52;;;;;;;1.00;0.70;;;12.60;99.90;;;;;;4149402;28;20038;-64
2024/04/01 06:17:53;;;;;;;4.47;0.90;;;12.60;99.90;;;;;;4153567;28;20041;-66
2024/04/01 06:19:54;;;;;;;1.00;0.60;;;12.60;99.90;;;;;;4155964;28;20061;-65
2024/04/01 06:21:54;;;;;;;1.23;0.50;;;12.60;99.90;;;;;;4156859;28;20036;-65
2024/04/01 06:23:55;;;;;;;0.90;0.60;;;12.60;99.90;;;;;;4155402;28;20490;-61
2024/04/01 06:25:57;;;;;;;0.77;0.73;;;12.60;99.90;;;;;;4155777;28;20576;-67
2024/04/01 06:27:57;;;;;;;1.85;0.70;;;12.60;99.90;;;;;;4157031;28;20421;-66
2024/04/01 06:29:58;;;;;;;2.00;0.68;;;12.50;99.90;;;;;;4157551;28;20033;-66
2024/04/01 06:31:59;;;;;;;1.40;0.68;;;12.50;99.90;;;;;;4155160;28;20059;-67
2024/04/01 06:34:00;;;;;;;1.08;0.75;;;12.50;99.90;;;;;;4156768;28;20065;-67
2024/04/01 06:36:02;;;;;;;2.33;0.90;;;12.50;99.90;;;;;;4152614;28;20608;-67
2024/04/01 06:38:04;;;;;;;1.63;0.75;;;12.40;99.90;;;;;;4156230;28;20494;-67
2024/04/01 06:40:06;;;;;;;1.35;0.98;;;12.40;99.90;;;;;;4151713;28;20080;-67
2024/04/01 06:42:07;;;;;;;1.37;0.90;;;12.40;99.90;;;;;;4151581;28;20520;-66
2024/04/01 06:44:08;;;;;;;0.80;0.80;;;12.40;99.90;;;;;;4181600;28;20779;-66
2024/04/01 06:46:09;;;;;;;1.85;0.88;;;12.40;99.90;;;;;;4154957;28;20037;-66
2024/04/01 06:48:09;;;;;;;2.53;0.80;;;12.30;99.90;;;;;;4154938;28;20037;-66
2024/04/01 06:50:10;;;;;;;1.88;1.05;;;12.30;99.90;;;;;;4155472;28;20037;-67
2024/04/01 06:52:11;;;;;;;1.83;0.90;;;12.30;99.90;;;;;;4156832;28;20429;-66
2024/04/01 06:54:12;;;;;;;2.08;0.95;;;12.30;99.90;;;;;;4160075;28;20052;-66
2024/04/01 06:56:13;;;;;;;1.17;0.98;;;12.30;99.90;;;;;;4157831;28;20075;-66
2024/04/01 06:58:17;;;;;;;1.83;1.10;;;12.30;99.90;;;;;;4151454;28;20030;-66
2024/04/01 07:00:19;;;;;;;1.35;0.98;;;12.30;99.90;;;;;;4155910;28;20041;-64
2024/04/01 07:02:22;;;;;;;2.00;1.25;;;12.20;99.90;;;;;;4155768;28;20045;-64
2024/04/01 07:04:23;;;;;;;2.42;1.17;;;12.20;99.90;;;;;;4156806;28;20075;-64
2024/04/01 07:06:25;;;;;;;1.50;1.00;;;12.20;99.90;;;;;;4153113;28;20050;-64
2024/04/01 07:08:27;;;;;;;1.77;0.77;;;12.10;99.90;;;;;;4158659;28;20041;-64
2024/04/01 07:10:29;;;;;;;2.67;1.17;;;12.10;99.90;;;;;;4151245;28;21563;-64
2024/04/01 07:12:29;;;;;;;1.70;1.20;;;12.10;99.90;;;;;;4141426;28;20280;-64
2024/04/01 07:14:30;;;;;;;3.35;1.27;;;12.10;99.90;;;;;;4160563;28;20052;-63
2024/04/01 07:16:31;;;;;;;2.22;1.10;;;12.10;99.90;;;;;;4158009;28;20512;-64
2024/04/01 07:18:35;;;;;;;1.60;1.08;;;12.00;99.90;;;;;;4158960;28;20041;-64
2024/04/01 07:20:36;;;;;;;2.63;1.00;;;12.00;99.90;;;;;;4159431;28;20479;-64
2024/04/01 07:22:37;;;;;;;2.20;1.02;;;11.90;99.90;;;;;;4161348;28;20038;-64
2024/04/01 07:24:37;;;;;;;3.20;1.13;;;11.90;99.90;;;;;;4157013;28;20045;-64
2024/04/01 07:26:38;;;;;;;2.08;1.10;;;11.90;99.90;;;;;;4156444;28;20565;-64
2024/04/01 07:28:39;;;;;;;1.13;0.85;;;11.90;99.90;;;;;;4155617;28;20066;-64
2024/04/01 07:30:39;;;;;;;2.30;1.00;;;11.80;99.90;;;;;;4156742;28;20557;-64
2024/04/01 07:32:40;;;;;;;2.15;0.90;;;11.90;99.90;;;;;;4156733;28;20033;-64
2024/04/01 07:34:41;;;;;;;1.83;1.08;;;11.80;99.90;;;;;;4159430;28;20045;-67
2024/04/01 07:36:41;;;;;;;1.65;1.10;;;11.80;99.90;;;;;;4156266;28;20116;-67
2024/04/01 07:38:42;;;;;;;1.20;0.60;;;11.80;99.90;;;;;;4158726;28;20420;-67
2024/04/01 07:40:42;;;;;;;1.17;0.77;;;11.80;99.90;;;;;;4157876;28;20042;-67
2024/04/01 07:42:45;;;;;;;2.33;0.90;;;11.80;99.90;;;;;;4159779;28;20048;-67
2024/04/01 07:44:47;;;;;;;1.67;1.17;;;11.80;99.90;;;;;;4157409;28;20470;-67
2024/04/01 07:46:47;;;;;;;2.55;1.00;;;11.80;99.90;;;;;;4159143;28;20048;-67
2024/04/01 07:48:48;;;;;;;3.35;1.20;;;11.80;99.90;;;;;;4160179;28;20047;-67
2024/04/01 07:50:48;;;;;;;4.45;1.27;;;11.80;99.90;;;;;;4158376;28;20029;-67
2024/04/01 07:52:49;;;;;;;3.42;0.85;;;11.80;99.90;;;;;;4159066;28;20029;-66
2024/04/01 07:54:50;;;;;;;1.65;0.82;;;11.80;99.90;;;;;;4159644;28;20545;-66
2024/04/01 07:56:51;;;;;;;1.27;0.93;;;11.80;99.90;;;;;;4158798;28;20409;-67
2024/04/01 07:58:51;;;;;;;3.42;1.10;;;11.80;99.90;;;;;;4161876;28;20034;-67
2024/04/01 08:00:54;;;;;;;1.55;1.10;;;11.80;99.90;;;;;;4160503;28;20037;-67
2024/04/01 08:02:54;;;;;;;2.50;1.20;;;11.80;99.90;;;;;;4158732;28;20401;-66
2024/04/01 08:04:55;;;;;;;2.08;1.15;;;11.70;99.90;;;;;;4160865;28;20046;-67
2024/04/01 08:06:56;;;;;;;1.58;1.08;;;11.80;99.90;;;;;;4156333;28;20034;-67
2024/04/01 08:08:56;;;;;;;2.50;1.42;;;11.80;99.90;;;;;;4160219;28;20033;-67
2024/04/01 08:10:57;;;;;;;2.53;1.20;;;11.80;99.90;;;;;;4160289;28;20036;-67
2024/04/01 08:12:58;;;;;;;3.05;1.50;;;11.80;99.90;;;;;;4161785;28;20034;-66
2024/04/01 08:14:58;;;;;;;1.45;0.90;;;11.80;99.90;;;;;;4158711;28;20049;-67
2024/04/01 08:16:59;;;;;;;3.00;1.20;;;11.80;99.90;;;;;;4150139;28;20041;-68
2024/04/01 08:19:00;;;;;;;1.10;1.00;;;11.90;99.90;;;;;;4162232;28;20037;-67
2024/04/01 08:21:01;;;;;;;2.35;1.45;;;11.90;99.90;;;;;;4156681;28;20090;-67
2024/04/01 08:23:02;;;;;;;1.90;1.20;;;11.90;99.90;;;;;;4161321;28;20103;-67
2024/04/01 08:25:04;;;;;;;3.00;1.40;;;11.80;99.90;;;;;;4160754;28;20478;-68
2024/04/01 08:27:05;;;;;;;2.35;1.30;;;11.80;99.90;;;;;;4158573;28;20128;-68
2024/04/01 08:29:06;;;;;;;3.13;1.23;;;11.90;99.90;;;;;;4162618;28;20029;-67
2024/04/01 08:31:06;;;;;;;1.45;1.20;;;11.90;99.90;;;;;;4159390;28;20056;-68
2024/04/01 08:33:07;;;;;;;2.45;1.40;;;11.90;99.90;;;;;;4160802;28;20038;-67
2024/04/01 08:35:07;;;;;;;3.45;1.30;;;11.90;99.90;;;;;;4158251;28;20464;-67
2024/04/01 08:37:08;;;;;;;2.78;1.20;;;11.90;99.90;;;;;;4141609;28;20034;-67
2024/04/01 08:39:09;;;;;;;4.45;1.77;;;11.90;99.90;;;;;;4156845;28;20119;-67
2024/04/01 08:41:42;;;;;;;2.95;1.30;;;11.80;99.90;;;;;;4161171;28;20504;-67
2024/04/01 08:44:03;;;;;;;3.58;1.30;;;11.80;99.90;;;;;;4155914;28;20049;-67
2024/04/01 08:46:04;;;;;;;1.40;1.10;;;11.80;99.90;;;;;;4158686;28;20041;-66
2024/04/01 08:48:12;;;;;;;2.10;1.33;;;11.80;99.90;;;;;;4161616;28;20544;-68
2024/04/01 08:50:21;;;;;;;3.60;1.52;;;11.80;99.90;;;;;;4155103;28;20091;-68
2024/04/01 08:52:26;;;;;;;2.35;1.50;;;11.80;99.90;;;;;;4152236;28;20033;-68
2024/04/01 08:54:27;;;;;;;3.17;1.52;;;11.80;99.90;;;;;;4156086;28;20029;-67
2024/04/01 08:56:29;;;;;;;2.92;1.73;;;11.70;99.90;;;;;;4156358;28;20124;-66
2024/04/01 08:58:31;;;;;;;1.95;1.20;;;11.70;99.90;;;;;;4158958;28;20829;-66
2024/04/01 09:00:31;;;;;;;1.80;1.23;;;11.70;99.90;;;;;;4155643;28;20044;-66
2024/04/01 09:02:32;;;;;;;3.35;1.73;;;11.70;99.90;;;;;;4151981;28;20025;-67
2024/04/01 09:04:33;;;;;;;2.08;1.35;;;11.70;99.90;;;;;;4159896;28;20036;-66
2024/04/01 09:06:34;;;;;;;3.58;2.00;;;11.70;99.90;;;;;;4156373;28;20501;-66
2024/04/01 09:08:34;;;;;;;3.47;1.73;;;11.60;99.90;;;;;;4160329;28;20398;-66
2024/04/01 09:10:35;;;;;;;3.00;1.80;;;11.60;99.90;;;;;;4161445;28;20054;-66
2024/04/01 09:12:36;;;;;;;3.45;1.83;;;11.60;99.90;;;;;;4159640;28;20055;-66
2024/04/01 09:14:36;;;;;;;8.38;2.35;;;11.70;99.90;;;;;;4161350;28;20033;-66
2024/04/01 09:16:37;;;;;;;2.20;1.73;;;11.70;99.90;;;;;;4158848;28;20041;-66
2024/04/01 09:18:38;;;;;;;3.20;1.92;;;11.70;99.90;;;;;;4158277;28;20107;-66
2024/04/01 09:20:44;;;;;;;2.55;1.80;;;11.70;99.90;;;;;;4158751;28;20072;-66
2024/04/01 09:22:45;;;;;;;2.83;1.90;;;11.70;99.90;;;;;;4158589;28;20037;-66
2024/04/01 09:24:46;;;;;;;2.80;2.10;;;11.70;99.90;;;;;;4158739;28;20037;-66
2024/04/01 09:26:47;;;;;;;2.58;2.35;;;11.80;99.90;;;;;;4159748;28;20060;-66
2024/04/01 09:28:49;;;;;;;3.78;2.00;;;11.80;99.90;;;;;;4151486;28;20498;-66
2024/04/01 09:30:50;;;;;;;3.80;2.40;;;11.80;99.90;;;;;;4156146;28;20473;-66
2024/04/01 09:32:51;;;;;;;5.30;3.42;;;11.80;99.90;;;;;;4159896;28;20379;-66
2024/04/01 09:34:58;;;;;;;4.38;3.45;;;11.80;99.90;;;;;;4159459;28;20041;-66
2024/04/01 09:36:59;;;;;;;5.60;4.10;;;11.80;99.90;;;;;;4159679;28;20071;-65
2024/04/01 09:39:00;;;;;;;4.43;3.13;;;11.70;99.90;;;;;;4156186;28;20026;-66
2024/04/01 09:41:01;;;;;;;3.92;3.10;;;11.70;99.90;;;;;;4154020;28;20584;-66
2024/04/01 09:43:02;;;;;;;6.00;3.15;;;11.70;99.90;;;;;;4159274;28;20484;-66
2024/04/01 09:45:04;;;;;;;6.50;3.60;;;11.70;99.90;;;;;;4159186;28;20026;-67
2024/04/01 09:47:05;;;;;;;4.15;3.38;;;11.70;99.90;;;;;;4158023;28;20041;-66
2024/04/01 09:49:06;;;;;;;6.32;4.60;;;11.70;99.90;;;;;;4160942;28;20029;-66
2024/04/01 09:51:11;;;;;;;6.95;5.18;;;11.70;99.90;;;;;;4154847;28;20111;-66
2024/04/01 09:53:11;;;;;;;4.50;4.05;;;11.70;99.90;;;;;;4158049;28;20038;-66
2024/04/01 09:55:19;;;;;;;4.93;4.43;;;11.60;99.90;;;;;;4153897;28;20474;-70
2024/04/01 09:57:52;;;;;;;6.47;5.05;;;11.70;99.90;;;;;;4158972;28;20048;-70
2024/04/01 10:00:13;;;;;;;5.70;4.50;;;11.60;99.90;;;;;;4159850;28;20033;-71
2024/04/01 10:02:50;;;;;;;7.75;6.32;;;11.70;99.90;;;;;;4153224;28;20083;-70
2024/04/01 10:05:12;;;;;;;8.70;6.90;;;11.60;99.90;;;;;;4154096;28;20029;-71
2024/04/01 10:07:31;;;;;;;7.00;6.30;;;11.70;99.90;;;;;;4155448;28;20091;-69
2024/04/01 10:09:55;;;;;;;7.35;6.18;;;11.70;99.90;;;;;;4159837;28;20033;-70
2024/04/01 10:12:20;;;;;;;8.38;6.90;;;11.70;99.90;;;;;;4158456;28;20478;-69
2024/04/01 10:14:54;;;;;;;7.57;6.72;;;11.70;99.90;;;;;;4157390;28;20033;-70
2024/04/01 10:17:05;;;;;;;7.28;6.55;;;11.70;99.90;;;;;;4159336;28;20040;-71
2024/04/01 10:19:11;;;;;;;9.13;7.72;;;11.80;99.90;;;;;;4157617;28;20040;-70
2024/04/01 10:21:31;;;;;;;8.35;7.25;;;11.80;99.90;;;;;;4154275;28;20437;-70
2024/04/01 10:23:50;;;;;;;7.82;6.65;;;11.80;99.90;;;;;;4157880;28;20489;-70
2024/04/01 10:26:13;;;;;;;10.27;7.57;;;11.80;99.90;;;;;;4156069;28;20068;-71
2024/04/01 10:28:50;;;;;;;9.57;8.55;;;11.90;99.90;;;;;;4162716;28;20017;-71
2024/04/01 10:31:27;;;;;;;9.02;8.10;;;11.90;99.90;;;;;;4156566;28;20045;-71
2024/04/01 10:33:30;;;;;;;9.70;8.63;;;11.90;99.90;;;;;;4156914;28;20042;-70
2024/04/01 10:35:50;;;;;;;11.73;9.57;;;11.90;99.90;;;;;;4162972;28;20034;-70
2024/04/01 10:38:17;;;;;;;10.52;9.43;;;12.00;99.90;;;;;;4161270;28;20093;-71